createdAt,value
2023-01-29T00:00:10.649Z,81.40
2023-01-29T00:03:01.127Z,81.45
2023-01-29T00:05:29.155Z,81.63
2023-01-29T00:07:57.667Z,81.84
2023-01-29T00:10:26.557Z,81.65
2023-01-29T00:12:54.919Z,81.61
2023-01-29T00:15:22.828Z,81.68
2023-01-29T00:17:50.648Z,81.83
2023-01-29T00:20:19.307Z,81.97
2023-01-29T00:22:47.658Z,81.78
2023-01-29T00:25:15.799Z,81.71
2023-01-29T00:27:44.689Z,81.54
2023-01-29T00:30:13.568Z,81.69
2023-01-29T00:32:41.725Z,81.90
2023-01-29T00:35:10.222Z,82.01
2023-01-29T00:37:39.432Z,82.02
2023-01-29T00:40:09.463Z,82.13
2023-01-29T00:42:55.761Z,82.11
2023-01-29T00:45:23.650Z,82.15
2023-01-29T00:47:51.493Z,82.43
2023-01-29T00:50:19.635Z,82.46
2023-01-29T00:52:49.800Z,82.40
2023-01-29T00:55:17.987Z,82.46
2023-01-29T00:57:46.986Z,82.28
2023-01-29T01:00:19.352Z,82.34
2023-01-29T01:03:05.535Z,82.41
2023-01-29T01:05:34.307Z,82.35
2023-01-29T01:08:02.260Z,82.37
2023-01-29T01:10:33.478Z,82.36
2023-01-29T01:13:05.520Z,82.29
2023-01-29T01:15:40.055Z,82.31
2023-01-29T01:18:08.085Z,82.37
2023-01-29T01:20:36.383Z,82.37
2023-01-29T01:23:04.737Z,82.53
2023-01-29T01:25:33.068Z,82.52
2023-01-29T01:28:01.831Z,82.48
2023-01-29T01:30:29.733Z,82.49
2023-01-29T01:32:57.754Z,82.58
2023-01-29T01:35:26.600Z,82.62
2023-01-29T01:37:54.472Z,82.60
2023-01-29T01:40:25.031Z,82.47
2023-01-29T01:42:59.123Z,82.48
2023-01-29T01:45:34.211Z,82.63
2023-01-29T01:48:19.239Z,82.52
2023-01-29T01:50:58.249Z,82.68
2023-01-29T01:53:39.207Z,82.73
2023-01-29T01:56:13.823Z,82.70
2023-01-29T01:58:55.763Z,82.43
2023-01-29T02:01:30.846Z,82.48
2023-01-29T02:04:35.612Z,82.41
2023-01-29T02:07:27.076Z,82.42
2023-01-29T02:10:12.363Z,82.51
2023-01-29T02:12:41.162Z,82.39
2023-01-29T02:15:10.531Z,82.43
2023-01-29T02:17:38.940Z,82.74
2023-01-29T02:20:26.172Z,82.65
2023-01-29T02:22:56.160Z,82.57
2023-01-29T02:26:16.659Z,82.57
2023-01-29T02:29:22.674Z,82.73
2023-01-29T02:32:58.341Z,82.70
2023-01-29T02:35:39.207Z,82.60
2023-01-29T02:38:43.619Z,82.67
2023-01-29T02:41:31.529Z,82.90
2023-01-29T02:44:19.664Z,82.97
2023-01-29T02:47:16.624Z,82.99
2023-01-29T02:49:53.855Z,82.63
2023-01-29T02:52:31.069Z,82.61
2023-01-29T02:55:17.799Z,82.66
2023-01-29T02:57:50.964Z,82.81
2023-01-29T03:00:27.823Z,82.73
2023-01-29T03:03:13.468Z,82.57
2023-01-29T03:06:20.335Z,82.66
2023-01-29T03:08:59.876Z,82.56
2023-01-29T03:11:36.915Z,82.48
2023-01-29T03:14:16.917Z,82.62
2023-01-29T03:16:52.926Z,82.58
2023-01-29T03:19:41.892Z,82.33
2023-01-29T03:22:22.091Z,82.23
2023-01-29T03:25:18.939Z,82.32
2023-01-29T03:28:20.249Z,82.19
2023-01-29T03:31:13.324Z,82.08
2023-01-29T03:34:18.176Z,82.32
2023-01-29T03:37:01.786Z,82.44
2023-01-29T03:39:30.507Z,82.30
2023-01-29T03:42:30.551Z,82.34
2023-01-29T03:45:11.876Z,82.26
2023-01-29T03:48:09.351Z,82.26
2023-01-29T03:51:12.138Z,82.31
2023-01-29T03:53:49.756Z,82.55
2023-01-29T03:56:55.703Z,82.51
2023-01-29T03:59:33.239Z,82.66
2023-01-29T04:02:27.642Z,82.62
2023-01-29T04:05:05.077Z,82.59
2023-01-29T04:07:36.699Z,82.62
2023-01-29T04:10:17.115Z,82.55
2023-01-29T04:13:10.496Z,82.57
2023-01-29T04:15:48.216Z,82.50
2023-01-29T04:18:16.353Z,82.26
2023-01-29T04:21:07.437Z,82.35
2023-01-29T04:23:35.526Z,82.32
2023-01-29T04:26:31.800Z,82.34
2023-01-29T04:29:38.529Z,82.46
2023-01-29T04:32:31.934Z,82.39
2023-01-29T04:35:31.549Z,82.33
2023-01-29T04:38:08.578Z,82.44
2023-01-29T04:40:51.554Z,82.63
2023-01-29T04:43:38.676Z,82.63
2023-01-29T04:46:09.309Z,82.56
2023-01-29T04:49:20.503Z,82.56
2023-01-29T04:52:10.104Z,82.58
2023-01-29T04:54:49.975Z,82.57
2023-01-29T04:57:28.952Z,82.45
2023-01-29T05:00:16.414Z,82.65
2023-01-29T05:02:45.581Z,83.13
2023-01-29T05:05:18.900Z,83.04
2023-01-29T05:07:48.682Z,83.02
2023-01-29T05:10:20.955Z,83.22
2023-01-29T05:12:58.706Z,83.04
2023-01-29T05:15:39.949Z,83.10
2023-01-29T05:18:09.184Z,83.22
2023-01-29T05:20:41.599Z,83.28
2023-01-29T05:23:19.994Z,83.38
2023-01-29T05:25:50.685Z,83.51
2023-01-29T05:28:19.283Z,83.66
2023-01-29T05:30:51.621Z,83.44
2023-01-29T05:33:25.644Z,83.39
2023-01-29T05:35:55.771Z,83.57
2023-01-29T05:38:24.178Z,83.53
2023-01-29T05:40:52.067Z,83.58
2023-01-29T05:43:28.928Z,83.57
2023-01-29T05:46:00.059Z,83.65
2023-01-29T05:48:31.405Z,83.48
2023-01-29T05:51:04.363Z,83.50
2023-01-29T05:53:33.421Z,83.52
2023-01-29T05:56:04.060Z,83.69
2023-01-29T05:58:33.803Z,83.90
2023-01-29T06:01:14.156Z,84.11
2023-01-29T06:03:42.428Z,84.28
2023-01-29T06:06:10.229Z,84.41
2023-01-29T06:08:38.554Z,84.31
2023-01-29T06:11:13.495Z,84.29
2023-01-29T06:13:41.434Z,84.46
2023-01-29T06:16:11.387Z,84.57
2023-01-29T06:18:41.239Z,84.43
2023-01-29T06:21:13.096Z,84.31
2023-01-29T06:23:41.164Z,84.34
2023-01-29T06:26:13.915Z,84.38
2023-01-29T06:28:43.804Z,84.39
2023-01-29T06:31:30.411Z,84.33
2023-01-29T06:33:59.765Z,84.34
2023-01-29T06:36:27.628Z,84.31
2023-01-29T06:38:55.492Z,84.41
2023-01-29T06:41:25.463Z,84.43
2023-01-29T06:43:53.524Z,84.44
2023-01-29T06:46:21.692Z,84.48
2023-01-29T06:48:49.681Z,84.42
2023-01-29T06:51:17.911Z,84.41
2023-01-29T06:53:46.640Z,84.45
2023-01-29T06:56:14.830Z,84.38
2023-01-29T06:58:43.638Z,84.35
2023-01-29T07:01:22.176Z,84.31
2023-01-29T07:03:57.141Z,84.36
2023-01-29T07:06:31.895Z,84.32
2023-01-29T07:09:00.140Z,84.40
2023-01-29T07:11:28.045Z,84.41
2023-01-29T07:13:56.209Z,84.42
2023-01-29T07:16:25.025Z,84.36
2023-01-29T07:18:53.081Z,84.30
2023-01-29T07:21:21.061Z,84.37
2023-01-29T07:23:48.949Z,84.43
2023-01-29T07:26:17.282Z,84.35
2023-01-29T07:28:45.106Z,84.42
2023-01-29T07:31:15.270Z,84.63
2023-01-29T07:33:44.886Z,84.68
2023-01-29T07:36:13.531Z,84.75
2023-01-29T07:38:41.970Z,84.73
2023-01-29T07:41:11.968Z,84.75
2023-01-29T07:43:39.812Z,84.79
2023-01-29T07:46:08.064Z,84.86
2023-01-29T07:48:36.203Z,84.76
2023-01-29T07:51:04.312Z,85.01
2023-01-29T07:53:32.819Z,85.15
2023-01-29T07:56:00.738Z,85.27
2023-01-29T07:58:28.580Z,85.47
2023-01-29T08:00:56.512Z,85.34
2023-01-29T08:03:24.688Z,85.46
2023-01-29T08:05:52.534Z,85.49
2023-01-29T08:08:20.484Z,85.54
2023-01-29T08:10:48.364Z,85.54
2023-01-29T08:13:16.238Z,85.54
2023-01-29T08:15:47.857Z,85.48
2023-01-29T08:18:15.710Z,85.40
2023-01-29T08:20:43.825Z,85.57
2023-01-29T08:23:16.620Z,85.63
2023-01-29T08:25:45.039Z,85.64
2023-01-29T08:28:12.930Z,85.54
2023-01-29T08:30:41.958Z,85.48
2023-01-29T08:33:10.227Z,85.44
2023-01-29T08:35:38.245Z,85.44
2023-01-29T08:38:07.081Z,85.35
2023-01-29T08:40:35.563Z,85.25
2023-01-29T08:43:09.501Z,85.24
2023-01-29T08:45:42.048Z,85.19
2023-01-29T08:48:11.040Z,85.13
2023-01-29T08:50:39.963Z,84.97
2023-01-29T08:53:09.118Z,85.04
2023-01-29T08:55:40.070Z,85.00
2023-01-29T08:58:11.386Z,84.96
2023-01-29T09:00:39.649Z,84.88
2023-01-29T09:03:08.183Z,84.77
2023-01-29T09:05:40.334Z,84.79
2023-01-29T09:08:10.564Z,84.89
2023-01-29T09:10:38.594Z,84.85
2023-01-29T09:13:06.664Z,84.91
2023-01-29T09:15:34.499Z,85.05
2023-01-29T09:18:06.129Z,85.08
2023-01-29T09:20:34.150Z,85.15
2023-01-29T09:23:10.983Z,85.06
2023-01-29T09:25:38.803Z,85.15
2023-01-29T09:28:06.869Z,85.16
2023-01-29T09:30:37.641Z,85.19
2023-01-29T09:33:06.914Z,85.21
2023-01-29T09:35:35.358Z,85.00
2023-01-29T09:38:03.303Z,84.95
2023-01-29T09:40:52.947Z,84.74
2023-01-29T09:43:46.930Z,84.62
2023-01-29T09:46:24.878Z,84.76
2023-01-29T09:49:07.665Z,84.62
2023-01-29T09:51:44.947Z,84.64
2023-01-29T09:54:27.336Z,84.56
2023-01-29T09:56:57.485Z,84.52
2023-01-29T09:59:31.141Z,84.55
2023-01-29T10:02:17.689Z,84.51
2023-01-29T10:05:25.505Z,84.55
2023-01-29T10:08:53.011Z,84.74
2023-01-29T10:11:55.215Z,84.75
2023-01-29T10:14:49.808Z,84.87
2023-01-29T10:18:02.444Z,84.86
2023-01-29T10:21:07.473Z,84.90
2023-01-29T10:23:51.016Z,84.73
2023-01-29T10:26:26.439Z,84.69
2023-01-29T10:28:58.595Z,84.63
2023-01-29T10:31:33.314Z,84.52
2023-01-29T10:34:11.372Z,84.47
2023-01-29T10:36:46.461Z,84.36
2023-01-29T10:39:24.343Z,84.28
2023-01-29T10:42:05.709Z,84.33
2023-01-29T10:44:42.555Z,84.29
2023-01-29T10:47:47.032Z,84.39
2023-01-29T10:50:17.836Z,84.34
2023-01-29T10:52:52.489Z,84.20
2023-01-29T10:55:51.221Z,84.15
2023-01-29T10:58:28.215Z,84.25
2023-01-29T11:00:56.529Z,84.17
2023-01-29T11:03:35.846Z,84.22
2023-01-29T11:06:24.069Z,84.26
2023-01-29T11:09:26.277Z,84.08
2023-01-29T11:12:03.151Z,83.91
2023-01-29T11:14:45.881Z,83.62
2023-01-29T11:17:26.367Z,83.51
2023-01-29T11:19:55.933Z,83.50
2023-01-29T11:22:27.875Z,83.51
2023-01-29T11:25:17.991Z,83.63
2023-01-29T11:27:58.568Z,83.64
2023-01-29T11:30:38.259Z,83.84
2023-01-29T11:33:22.014Z,84.06
2023-01-29T11:35:52.529Z,84.18
2023-01-29T11:38:29.644Z,84.19
2023-01-29T11:41:18.526Z,84.13
2023-01-29T11:43:46.369Z,84.31
2023-01-29T11:46:16.145Z,84.42
2023-01-29T11:48:58.997Z,84.42
2023-01-29T11:51:30.340Z,84.38
2023-01-29T11:54:03.548Z,84.28
2023-01-29T11:56:43.471Z,84.11
2023-01-29T11:59:30.395Z,83.97
2023-01-29T12:02:42.032Z,83.83
2023-01-29T12:05:20.974Z,83.59
2023-01-29T12:07:54.588Z,83.53
2023-01-29T12:10:41.595Z,83.26
2023-01-29T12:13:12.383Z,83.40
2023-01-29T12:15:44.658Z,83.36
2023-01-29T12:18:30.195Z,83.50
2023-01-29T12:21:16.108Z,83.62
2023-01-29T12:24:23.924Z,83.48
2023-01-29T12:27:12.273Z,83.46
2023-01-29T12:29:53.040Z,83.38
2023-01-29T12:32:43.291Z,83.36
2023-01-29T12:35:20.340Z,83.17
2023-01-29T12:38:10.255Z,83.25
2023-01-29T12:40:48.775Z,83.16
2023-01-29T12:43:24.053Z,83.15
2023-01-29T12:45:57.928Z,82.95
2023-01-29T12:48:36.591Z,83.01
2023-01-29T12:51:22.836Z,82.42
2023-01-29T12:54:05.356Z,82.47
2023-01-29T12:56:41.195Z,82.57
2023-01-29T12:59:40.661Z,82.77
2023-01-29T13:02:35.359Z,82.71
2023-01-29T13:05:19.107Z,82.80
2023-01-29T13:07:57.151Z,82.85
2023-01-29T13:10:35.087Z,82.81
2023-01-29T13:13:19.292Z,82.90
2023-01-29T13:15:48.848Z,82.61
2023-01-29T13:18:44.596Z,82.49
2023-01-29T13:21:22.585Z,82.53
2023-01-29T13:24:02.190Z,82.71
2023-01-29T13:26:32.625Z,82.79
2023-01-29T13:29:01.534Z,83.02
2023-01-29T13:31:41.255Z,83.05
2023-01-29T13:34:20.152Z,83.19
2023-01-29T13:36:53.850Z,83.18
2023-01-29T13:39:33.633Z,83.25
2023-01-29T13:42:15.004Z,83.47
2023-01-29T13:44:50.386Z,83.46
2023-01-29T13:47:30.404Z,83.51
2023-01-29T13:50:34.840Z,83.60
2023-01-29T13:53:05.818Z,83.55
2023-01-29T13:55:38.638Z,83.51
2023-01-29T13:58:15.970Z,83.35
2023-01-29T14:00:43.668Z,83.32
2023-01-29T14:03:11.724Z,83.28
2023-01-29T14:05:54.880Z,83.32
2023-01-29T14:08:37.850Z,83.22
2023-01-29T14:11:18.045Z,83.27
2023-01-29T14:13:48.114Z,83.32
2023-01-29T14:16:15.928Z,83.41
2023-01-29T14:18:59.819Z,83.38
2023-01-29T14:21:35.752Z,83.37
2023-01-29T14:24:22.710Z,83.45
2023-01-29T14:26:55.847Z,83.38
2023-01-29T14:29:34.973Z,83.23
2023-01-29T14:32:06.096Z,83.14
2023-01-29T14:35:02.436Z,83.08
2023-01-29T14:37:38.988Z,82.98
2023-01-29T14:40:22.767Z,82.97
2023-01-29T14:43:19.770Z,82.89
2023-01-29T14:45:49.683Z,82.89
2023-01-29T14:48:39.514Z,82.84
2023-01-29T14:51:12.910Z,82.90
2023-01-29T14:53:45.877Z,82.79
2023-01-29T14:56:35.069Z,82.63
2023-01-29T14:59:23.849Z,82.43
2023-01-29T15:01:56.612Z,82.22
2023-01-29T15:04:49.104Z,82.21
2023-01-29T15:07:46.451Z,82.05
2023-01-29T15:10:26.312Z,82.19
2023-01-29T15:13:22.209Z,82.19
2023-01-29T15:15:59.479Z,82.03
2023-01-29T15:18:37.647Z,82.12
2023-01-29T15:21:26.004Z,82.12
2023-01-29T15:24:07.010Z,82.07
2023-01-29T15:26:36.532Z,82.07
2023-01-29T15:29:05.978Z,82.09
2023-01-29T15:31:35.541Z,81.98
2023-01-29T15:34:07.685Z,82.20
2023-01-29T15:36:37.466Z,82.39
2023-01-29T15:39:27.072Z,82.53
2023-01-29T15:42:23.490Z,82.67
2023-01-29T15:44:56.162Z,82.78
2023-01-29T15:47:31.726Z,82.84
2023-01-29T15:50:00.352Z,82.96
2023-01-29T15:52:35.303Z,83.03
2023-01-29T15:55:07.088Z,83.14
2023-01-29T15:57:41.281Z,83.14
2023-01-29T16:00:28.629Z,83.14
2023-01-29T16:02:58.516Z,83.16
2023-01-29T16:05:32.907Z,83.28
2023-01-29T16:08:01.590Z,83.44
2023-01-29T16:10:32.573Z,83.48
2023-01-29T16:13:01.417Z,83.52
2023-01-29T16:15:53.647Z,83.49
2023-01-29T16:18:36.312Z,83.55
2023-01-29T16:21:14.318Z,83.56
2023-01-29T16:23:48.851Z,83.56
2023-01-29T16:26:25.717Z,83.61
2023-01-29T16:28:55.535Z,83.67
2023-01-29T16:31:32.900Z,83.61
2023-01-29T16:34:10.132Z,83.58
2023-01-29T16:36:44.027Z,83.73
2023-01-29T16:39:23.163Z,83.96
2023-01-29T16:42:23.242Z,84.11
2023-01-29T16:45:00.146Z,84.25
2023-01-29T16:47:32.295Z,84.45
2023-01-29T16:50:18.553Z,84.73
2023-01-29T16:53:01.573Z,85.00
2023-01-29T16:55:41.617Z,85.08
2023-01-29T16:58:22.702Z,85.35
2023-01-29T17:01:01.139Z,85.49
2023-01-29T17:03:33.832Z,85.62
2023-01-29T17:06:23.151Z,85.89
2023-01-29T17:08:52.183Z,85.88
2023-01-29T17:11:36.583Z,86.10
2023-01-29T17:14:08.143Z,86.24
2023-01-29T17:16:47.205Z,86.28
2023-01-29T17:19:25.259Z,86.18
2023-01-29T17:21:53.358Z,86.25
2023-01-29T17:24:21.303Z,86.21
2023-01-29T17:26:49.776Z,86.44
2023-01-29T17:29:28.541Z,86.57
2023-01-29T17:31:56.975Z,86.37
2023-01-29T17:34:24.912Z,86.33
2023-01-29T17:36:52.794Z,86.56
2023-01-29T17:39:24.125Z,86.57
2023-01-29T17:41:55.632Z,86.73
2023-01-29T17:44:28.109Z,86.95
2023-01-29T17:46:56.117Z,87.03
2023-01-29T17:49:27.970Z,87.11
2023-01-29T17:51:57.119Z,86.98
2023-01-29T17:54:25.716Z,87.14
2023-01-29T17:56:54.280Z,87.25
2023-01-29T17:59:33.494Z,87.11
2023-01-29T18:02:01.420Z,87.06
2023-01-29T18:04:29.307Z,87.10
2023-01-29T18:06:58.162Z,86.90
2023-01-29T18:09:26.048Z,86.88
2023-01-29T18:11:54.068Z,86.83
2023-01-29T18:14:22.212Z,86.76
2023-01-29T18:16:50.092Z,86.64
2023-01-29T18:19:27.263Z,86.54
2023-01-29T18:21:55.166Z,86.43
2023-01-29T18:24:26.554Z,86.45
2023-01-29T18:26:54.544Z,86.27
2023-01-29T18:29:22.505Z,86.24
2023-01-29T18:31:50.373Z,86.16
2023-01-29T18:34:18.311Z,86.30
2023-01-29T18:36:47.804Z,86.11
2023-01-29T18:39:17.136Z,86.09
2023-01-29T18:41:45.068Z,86.06
2023-01-29T18:44:12.942Z,85.87
2023-01-29T18:46:40.764Z,85.71
2023-01-29T18:49:08.694Z,85.50
2023-01-29T18:51:36.633Z,85.19
2023-01-29T18:54:04.946Z,85.03
2023-01-29T18:56:32.825Z,84.89
2023-01-29T18:59:00.619Z,84.79
2023-01-29T19:01:28.663Z,84.56
2023-01-29T19:03:59.195Z,84.50
2023-01-29T19:06:27.440Z,84.47
2023-01-29T19:08:55.385Z,84.47
2023-01-29T19:11:23.196Z,84.42
2023-01-29T19:13:51.266Z,84.40
2023-01-29T19:16:19.161Z,84.33
2023-01-29T19:18:47.401Z,84.30
2023-01-29T19:21:17.028Z,84.40
2023-01-29T19:23:45.021Z,84.39
2023-01-29T19:26:13.608Z,84.36
2023-01-29T19:28:41.954Z,84.30
2023-01-29T19:31:09.813Z,84.30
2023-01-29T19:33:38.993Z,84.40
2023-01-29T19:36:07.748Z,84.30
2023-01-29T19:38:38.509Z,84.31
2023-01-29T19:41:06.645Z,84.31
2023-01-29T19:43:34.577Z,84.40
2023-01-29T19:46:02.658Z,84.40
2023-01-29T19:48:30.442Z,84.40
2023-01-29T19:51:01.357Z,84.45
2023-01-29T19:53:31.042Z,84.52
2023-01-29T19:56:08.985Z,84.67
2023-01-29T19:58:37.181Z,84.71
2023-01-29T20:01:24.778Z,84.74
2023-01-29T20:03:52.731Z,84.79
2023-01-29T20:06:25.455Z,84.84
2023-01-29T20:08:53.959Z,84.72
2023-01-29T20:11:23.588Z,84.74
2023-01-29T20:13:53.296Z,84.69
2023-01-29T20:16:22.132Z,84.83
2023-01-29T20:18:50.324Z,84.81
2023-01-29T20:21:22.048Z,84.87
2023-01-29T20:23:51.777Z,84.84
2023-01-29T20:26:20.391Z,84.86
2023-01-29T20:28:48.943Z,84.96
2023-01-29T20:31:17.230Z,85.03
2023-01-29T20:33:45.089Z,85.08
2023-01-29T20:36:14.743Z,85.01
2023-01-29T20:38:42.743Z,85.09
2023-01-29T20:41:16.536Z,85.17
2023-01-29T20:43:46.104Z,85.37
2023-01-29T20:46:14.808Z,85.55
2023-01-29T20:48:42.931Z,85.55
2023-01-29T20:51:15.676Z,85.42
2023-01-29T20:53:45.955Z,85.48
2023-01-29T20:56:16.742Z,85.60
2023-01-29T20:58:46.873Z,85.78
2023-01-29T21:01:19.730Z,85.97
2023-01-29T21:03:48.291Z,85.86
2023-01-29T21:06:16.251Z,85.96
2023-01-29T21:08:44.349Z,86.05
2023-01-29T21:11:12.388Z,85.89
2023-01-29T21:13:40.442Z,86.05
2023-01-29T21:16:11.262Z,86.16
2023-01-29T21:18:39.301Z,86.25
2023-01-29T21:21:07.302Z,86.10
2023-01-29T21:23:35.179Z,86.18
2023-01-29T21:26:06.300Z,86.33
2023-01-29T21:28:34.780Z,86.43
2023-01-29T21:31:10.113Z,86.48
2023-01-29T21:33:38.474Z,86.31
2023-01-29T21:36:08.041Z,86.44
2023-01-29T21:38:37.172Z,86.74
2023-01-29T21:41:09.838Z,87.01
2023-01-29T21:43:37.888Z,87.02
2023-01-29T21:46:14.116Z,87.00
2023-01-29T21:48:42.406Z,87.08
2023-01-29T21:51:10.348Z,87.33
2023-01-29T21:53:38.351Z,87.25
2023-01-29T21:56:06.465Z,87.15
2023-01-29T21:58:34.352Z,87.21
2023-01-29T22:01:34.538Z,87.31
2023-01-29T22:03:50.114Z,87.42
2023-01-29T22:06:18.081Z,87.39
2023-01-29T22:08:48.946Z,87.32
2023-01-29T22:11:17.333Z,87.44
2023-01-29T22:13:45.187Z,87.51
2023-01-29T22:16:12.981Z,87.44
2023-01-29T22:18:40.757Z,87.48
2023-01-29T22:21:08.731Z,87.73
2023-01-29T22:23:36.562Z,87.64
2023-01-29T22:26:06.991Z,87.96
2023-01-29T22:28:35.098Z,88.12
2023-01-29T22:31:05.351Z,88.15
2023-01-29T22:33:33.570Z,88.45
2023-01-29T22:36:01.953Z,88.18
2023-01-29T22:38:30.937Z,88.08
2023-01-29T22:41:00.505Z,88.27
2023-01-29T22:43:29.383Z,88.41
2023-01-29T22:45:57.582Z,88.41
2023-01-29T22:48:25.819Z,88.51
2023-01-29T22:51:11.918Z,88.54
2023-01-29T22:53:44.211Z,88.70
2023-01-29T22:56:12.595Z,88.74
2023-01-29T22:58:43.729Z,88.87
2023-01-29T23:01:11.702Z,88.87
2023-01-29T23:03:39.583Z,88.80
2023-01-29T23:06:07.491Z,88.86
2023-01-29T23:08:35.426Z,88.79
2023-01-29T23:11:14.377Z,88.93
2023-01-29T23:13:55.248Z,88.83
2023-01-29T23:16:27.741Z,88.84
2023-01-29T23:18:57.114Z,89.00
2023-01-29T23:21:27.244Z,88.90
2023-01-29T23:24:01.386Z,88.81
2023-01-29T23:26:48.236Z,88.87
2023-01-29T23:29:16.152Z,88.75
2023-01-29T23:31:44.077Z,88.81
2023-01-29T23:34:12.059Z,88.87
2023-01-29T23:36:40.095Z,88.94
2023-01-29T23:39:08.286Z,88.95
2023-01-29T23:41:36.568Z,88.89
2023-01-29T23:44:05.276Z,88.91
2023-01-29T23:46:33.544Z,89.16
2023-01-29T23:49:01.691Z,89.03
2023-01-29T23:51:29.861Z,88.95
2023-01-29T23:53:58.436Z,88.91
2023-01-29T23:56:26.472Z,89.11
2023-01-29T23:58:55.757Z,89.30
